CYYD

Smithers Airport

Airport
ICAO code
CYYD
IATA Code
YYD
Summary
ICAO Region
NAM
ICAO Territory
Location

Smithers, British Columbia,

Serving
Smithers
Elevation
1716 ft
Coordinates
54° 49' 29" N , 127° 11' 0" W
KCC
Metar
Observation
CYYD 280400Z 00000KT 20SM BKN060 M04/M06 A3002 RMK SC6 LAST STFD OBS/NXT 281500Z SLP193
Station
Smithers, B. C.
Date/Time
2022-11-28 04:00:00
Lowest cloud amount
n/a
Temperature
°C
Dew point
0°C
Weather condition
n/a

Description

Smithers Airport, is located 2 nm north of Smithers, British Columbia, Canada.

Climatology

Humid Continental climate (Köppen climate classification Dfb) - Variable weather patterns and a large seasonal temperature variance. Summers are often warm and humid with frequent thunderstorms and winters can be very cold with frequent snowfall and persistent snow cover.

Runways

Designator Length Width Surface Rops
15/33 1524 46 ASP Yes/Yes

Airport map

Aerial View

SKYbrary Partners:

Safety knowledge contributed by: